sensor_id;sensor_type;location;lat;lon;timestamp;pressure;altitude;pressure_sealevel;temperature;humidity
38612;BME280;24368;52.156;20.788;2023-04-28T00:02:16;100929.94;;;3.98;96.79
38612;BME280;24368;52.156;20.788;2023-04-28T00:07:17;100931.59;;;4.10;95.16
38612;BME280;24368;52.156;20.788;2023-04-28T00:12:18;100923.05;;;4.24;94.05
38612;BME280;24368;52.156;20.788;2023-04-28T00:17:19;100922.23;;;4.09;94.94
38612;BME280;24368;52.156;20.788;2023-04-28T00:22:21;100927.48;;;3.76;96.46
38612;BME280;24368;52.156;20.788;2023-04-28T00:27:22;100926.03;;;3.52;98.20
38612;BME280;24368;52.156;20.788;2023-04-28T00:32:23;100925.41;;;3.31;99.68
38612;BME280;24368;52.156;20.788;2023-04-28T00:37:24;100923.17;;;3.16;100.00
38612;BME280;24368;52.156;20.788;2023-04-28T00:42:25;100925.36;;;3.11;100.00
38612;BME280;24368;52.156;20.788;2023-04-28T00:47:26;100928.66;;;3.46;99.83
38612;BME280;24368;52.156;20.788;2023-04-28T00:52:28;100929.84;;;3.63;99.30
38612;BME280;24368;52.156;20.788;2023-04-28T00:57:30;100930.54;;;3.32;99.39
38612;BME280;24368;52.156;20.788;2023-04-28T01:02:31;100931.59;;;3.33;99.97
38612;BME280;24368;52.156;20.788;2023-04-28T01:07:32;100929.71;;;3.46;98.82
38612;BME280;24368;52.156;20.788;2023-04-28T01:12:34;100930.39;;;3.40;99.14
38612;BME280;24368;52.156;20.788;2023-04-28T01:17:35;100929.49;;;3.38;99.39
38612;BME280;24368;52.156;20.788;2023-04-28T01:22:36;100933.56;;;3.37;98.49
38612;BME280;24368;52.156;20.788;2023-04-28T01:27:37;100929.62;;;3.30;98.62
38612;BME280;24368;52.156;20.788;2023-04-28T01:32:38;100934.38;;;3.32;98.82
38612;BME280;24368;52.156;20.788;2023-04-28T01:37:40;100935.69;;;3.42;98.67
38612;BME280;24368;52.156;20.788;2023-04-28T01:42:41;100937.00;;;3.30;99.61
38612;BME280;24368;52.156;20.788;2023-04-28T01:47:42;100941.81;;;3.25;99.96
38612;BME280;24368;52.156;20.788;2023-04-28T01:52:43;100945.52;;;3.12;100.00
38612;BME280;24368;52.156;20.788;2023-04-28T01:57:44;100946.30;;;3.05;100.00
38612;BME280;24368;52.156;20.788;2023-04-28T02:02:45;100940.88;;;2.88;100.00
38612;BME280;24368;52.156;20.788;2023-04-28T02:07:47;100941.27;;;2.72;100.00
38612;BME280;24368;52.156;20.788;2023-04-28T02:12:48;100941.05;;;2.73;100.00
38612;BME280;24368;52.156;20.788;2023-04-28T02:17:49;100942.13;;;2.69;100.00
38612;BME280;24368;52.156;20.788;2023-04-28T02:22:50;100939.15;;;2.51;100.00
38612;BME280;24368;52.156;20.788;2023-04-28T02:27:51;100942.57;;;2.31;100.00
38612;BME280;24368;52.156;20.788;2023-04-28T02:32:52;100945.98;;;2.35;100.00
38612;BME280;24368;52.156;20.788;2023-04-28T02:37:53;100941.93;;;2.33;100.00
38612;BME280;24368;52.156;20.788;2023-04-28T02:42:55;100944.08;;;2.35;100.00
38612;BME280;24368;52.156;20.788;2023-04-28T02:47:56;100938.59;;;2.52;100.00
38612;BME280;24368;52.156;20.788;2023-04-28T02:52:57;100936.61;;;2.59;100.00
38612;BME280;24368;52.156;20.788;2023-04-28T02:57:58;100942.63;;;2.63;100.00
38612;BME280;24368;52.156;20.788;2023-04-28T03:02:59;100951.86;;;2.48;100.00
38612;BME280;24368;52.156;20.788;2023-04-28T03:08:00;100952.30;;;2.53;100.00
38612;BME280;24368;52.156;20.788;2023-04-28T03:13:01;100953.61;;;2.54;100.00
38612;BME280;24368;52.156;20.788;2023-04-28T03:18:03;100956.48;;;1.87;100.00
38612;BME280;24368;52.156;20.788;2023-04-28T03:23:04;100958.67;;;1.69;100.00
38612;BME280;24368;52.156;20.788;2023-04-28T03:28:05;100959.10;;;1.84;100.00
38612;BME280;24368;52.156;20.788;2023-04-28T03:33:06;100963.58;;;1.91;100.00
38612;BME280;24368;52.156;20.788;2023-04-28T03:38:07;100962.83;;;1.88;100.00
38612;BME280;24368;52.156;20.788;2023-04-28T03:43:08;100963.63;;;1.81;100.00
38612;BME280;24368;52.156;20.788;2023-04-28T03:48:09;100961.70;;;1.71;100.00
38612;BME280;24368;52.156;20.788;2023-04-28T03:53:10;100962.02;;;1.75;100.00
38612;BME280;24368;52.156;20.788;2023-04-28T03:58:12;100965.23;;;1.70;100.00
38612;BME280;24368;52.156;20.788;2023-04-28T04:03:13;100967.48;;;1.83;100.00
38612;BME280;24368;52.156;20.788;2023-04-28T04:08:14;100971.10;;;1.99;100.00
38612;BME280;24368;52.156;20.788;2023-04-28T04:13:15;100968.56;;;2.08;100.00
38612;BME280;24368;52.156;20.788;2023-04-28T04:18:16;100972.47;;;2.22;100.00
38612;BME280;24368;52.156;20.788;2023-04-28T04:23:17;100975.42;;;2.31;100.00
38612;BME280;24368;52.156;20.788;2023-04-28T04:28:18;100983.11;;;2.31;100.00
38612;BME280;24368;52.156;20.788;2023-04-28T04:33:19;100984.85;;;2.34;100.00
38612;BME280;24368;52.156;20.788;2023-04-28T04:38:21;100987.77;;;2.41;100.00
38612;BME280;24368;52.156;20.788;2023-04-28T04:43:22;100987.73;;;2.59;100.00
38612;BME280;24368;52.156;20.788;2023-04-28T04:48:23;100985.88;;;2.74;100.00
38612;BME280;24368;52.156;20.788;2023-04-28T04:53:24;100991.73;;;2.72;100.00
38612;BME280;24368;52.156;20.788;2023-04-28T04:58:25;100993.80;;;2.84;100.00
38612;BME280;24368;52.156;20.788;2023-04-28T05:03:26;100990.77;;;3.07;100.00
38612;BME280;24368;52.156;20.788;2023-04-28T05:08:27;100992.98;;;3.37;100.00
38612;BME280;24368;52.156;20.788;2023-04-28T05:13:28;100994.90;;;3.56;100.00
38612;BME280;24368;52.156;20.788;2023-04-28T05:18:29;101000.83;;;3.68;100.00
38612;BME280;24368;52.156;20.788;2023-04-28T05:23:31;101001.58;;;3.76;99.86
38612;BME280;24368;52.156;20.788;2023-04-28T05:28:32;101001.70;;;3.82;99.79
38612;BME280;24368;52.156;20.788;2023-04-28T05:33:33;101001.31;;;3.97;99.51
38612;BME280;24368;52.156;20.788;2023-04-28T05:38:34;100997.35;;;4.07;99.23
38612;BME280;24368;52.156;20.788;2023-04-28T05:43:36;101007.24;;;4.16;98.92
38612;BME280;24368;52.156;20.788;2023-04-28T05:48:37;101008.23;;;4.28;99.08
38612;BME280;24368;52.156;20.788;2023-04-28T05:53:38;101012.90;;;4.45;99.25
38612;BME280;24368;52.156;20.788;2023-04-28T05:58:39;101006.29;;;4.66;97.03
38612;BME280;24368;52.156;20.788;2023-04-28T06:03:41;101011.34;;;4.83;94.05
38612;BME280;24368;52.156;20.788;2023-04-28T06:08:42;101009.25;;;4.91;93.79
38612;BME280;24368;52.156;20.788;2023-04-28T06:13:43;101005.55;;;5.02;92.08
38612;BME280;24368;52.156;20.788;2023-04-28T06:18:44;101011.20;;;5.11;91.72
38612;BME280;24368;52.156;20.788;2023-04-28T06:23:46;101012.01;;;5.20;91.68
38612;BME280;24368;52.156;20.788;2023-04-28T06:28:47;101016.54;;;5.35;91.24
38612;BME280;24368;52.156;20.788;2023-04-28T06:33:48;101013.21;;;5.41;90.69
38612;BME280;24368;52.156;20.788;2023-04-28T06:38:50;101016.42;;;5.45;89.40
38612;BME280;24368;52.156;20.788;2023-04-28T06:43:51;101012.14;;;5.59;88.64
38612;BME280;24368;52.156;20.788;2023-04-28T06:48:52;101011.39;;;5.70;87.49
38612;BME280;24368;52.156;20.788;2023-04-28T06:53:53;101012.80;;;5.80;86.89
38612;BME280;24368;52.156;20.788;2023-04-28T06:58:54;101014.13;;;5.91;85.69
38612;BME280;24368;52.156;20.788;2023-04-28T07:03:56;101014.10;;;5.99;85.68
38612;BME280;24368;52.156;20.788;2023-04-28T07:08:58;101015.30;;;6.27;84.74
38612;BME280;24368;52.156;20.788;2023-04-28T07:13:59;101013.35;;;6.39;85.15
38612;BME280;24368;52.156;20.788;2023-04-28T07:19:00;101007.63;;;6.53;84.88
38612;BME280;24368;52.156;20.788;2023-04-28T07:24:01;101009.95;;;6.81;82.09
38612;BME280;24368;52.156;20.788;2023-04-28T07:29:02;101005.01;;;7.07;79.00
38612;BME280;24368;52.156;20.788;2023-04-28T07:34:03;100999.84;;;7.20;76.48
38612;BME280;24368;52.156;20.788;2023-04-28T07:39:04;100994.81;;;7.31;74.80
38612;BME280;24368;52.156;20.788;2023-04-28T07:44:06;100989.59;;;7.46;73.35
38612;BME280;24368;52.156;20.788;2023-04-28T07:49:08;100990.45;;;7.33;72.82
38612;BME280;24368;52.156;20.788;2023-04-28T07:54:09;100985.33;;;7.19;72.96
38612;BME280;24368;52.156;20.788;2023-04-28T07:59:10;100983.59;;;7.56;70.20
38612;BME280;24368;52.156;20.788;2023-04-28T08:04:11;100981.73;;;7.64;65.30
38612;BME280;24368;52.156;20.788;2023-04-28T08:09:12;100976.71;;;7.51;62.89
38612;BME280;24368;52.156;20.788;2023-04-28T08:14:14;100969.40;;;7.57;62.72
38612;BME280;24368;52.156;20.788;2023-04-28T08:19:15;100967.95;;;7.63;62.83
38612;BME280;24368;52.156;20.788;2023-04-28T08:24:16;100968.15;;;7.98;61.79
38612;BME280;24368;52.156;20.788;2023-04-28T08:29:17;100965.92;;;8.12;60.45
38612;BME280;24368;52.156;20.788;2023-04-28T08:34:19;100960.99;;;8.37;58.64
38612;BME280;24368;52.156;20.788;2023-04-28T08:39:20;100954.09;;;8.35;57.26
38612;BME280;24368;52.156;20.788;2023-04-28T08:44:23;100953.49;;;8.25;57.68
38612;BME280;24368;52.156;20.788;2023-04-28T08:49:33;100952.34;;;8.24;59.35
38612;BME280;24368;52.156;20.788;2023-04-28T08:54:37;100945.81;;;8.46;58.13
38612;BME280;24368;52.156;20.788;2023-04-28T08:59:39;100941.27;;;8.61;58.03
38612;BME280;24368;52.156;20.788;2023-04-28T09:04:41;100938.96;;;8.78;54.82
38612;BME280;24368;52.156;20.788;2023-04-28T09:09:42;100933.11;;;8.96;53.81
38612;BME280;24368;52.156;20.788;2023-04-28T09:14:57;100934.02;;;8.79;56.21
38612;BME280;24368;52.156;20.788;2023-04-28T09:19:58;100927.42;;;8.63;54.95
38612;BME280;24368;52.156;20.788;2023-04-28T09:25:10;100925.40;;;8.64;54.60
38612;BME280;24368;52.156;20.788;2023-04-28T09:30:12;100927.05;;;8.86;54.22
38612;BME280;24368;52.156;20.788;2023-04-28T09:35:13;100926.52;;;9.05;53.27
38612;BME280;24368;52.156;20.788;2023-04-28T09:40:14;100919.37;;;8.83;53.01
38612;BME280;24368;52.156;20.788;2023-04-28T09:45:16;100914.68;;;8.83;51.65
38612;BME280;24368;52.156;20.788;2023-04-28T09:50:17;100903.94;;;8.83;52.64
38612;BME280;24368;52.156;20.788;2023-04-28T09:55:18;100891.66;;;8.97;50.32
38612;BME280;24368;52.156;20.788;2023-04-28T10:00:21;100891.33;;;8.97;50.37
38612;BME280;24368;52.156;20.788;2023-04-28T10:05:23;100885.73;;;9.03;51.91
38612;BME280;24368;52.156;20.788;2023-04-28T10:10:25;100884.98;;;9.36;50.27
38612;BME280;24368;52.156;20.788;2023-04-28T10:15:28;100877.25;;;9.38;49.38
38612;BME280;24368;52.156;20.788;2023-04-28T10:20:29;100870.69;;;9.63;48.95
38612;BME280;24368;52.156;20.788;2023-04-28T10:25:32;100866.48;;;9.63;49.95
38612;BME280;24368;52.156;20.788;2023-04-28T10:30:36;100865.02;;;9.75;49.60
38612;BME280;24368;52.156;20.788;2023-04-28T10:56:06;100852.00;;;10.72;47.20
38612;BME280;24368;52.156;20.788;2023-04-28T11:01:26;100843.33;;;10.84;46.16
38612;BME280;24368;52.156;20.788;2023-04-28T11:06:30;100840.10;;;10.64;44.76
38612;BME280;24368;52.156;20.788;2023-04-28T11:11:34;100836.02;;;10.36;45.79
38612;BME280;24368;52.156;20.788;2023-04-28T11:21:50;100815.05;;;11.36;44.88
38612;BME280;24368;52.156;20.788;2023-04-28T11:26:52;100802.63;;;12.25;45.67
38612;BME280;24368;52.156;20.788;2023-04-28T11:31:53;100802.26;;;12.53;43.27
38612;BME280;24368;52.156;20.788;2023-04-28T11:36:54;100797.61;;;12.78;42.26
38612;BME280;24368;52.156;20.788;2023-04-28T11:41:57;100802.92;;;11.96;42.17
38612;BME280;24368;52.156;20.788;2023-04-28T11:47:01;100801.10;;;11.55;41.57
38612;BME280;24368;52.156;20.788;2023-04-28T11:52:06;100806.08;;;11.60;41.99
38612;BME280;24368;52.156;20.788;2023-04-28T11:57:21;100807.02;;;11.39;42.81
38612;BME280;24368;52.156;20.788;2023-04-28T12:02:27;100798.05;;;11.23;42.56
38612;BME280;24368;52.156;20.788;2023-04-28T12:07:40;100790.88;;;11.42;43.03
38612;BME280;24368;52.156;20.788;2023-04-28T12:12:43;100779.42;;;13.49;41.14
38612;BME280;24368;52.156;20.788;2023-04-28T12:17:45;100774.97;;;13.66;40.24
38612;BME280;24368;52.156;20.788;2023-04-28T12:22:48;100771.95;;;12.94;40.95
38612;BME280;24368;52.156;20.788;2023-04-28T12:33:02;100762.33;;;13.40;40.02
38612;BME280;24368;52.156;20.788;2023-04-28T12:38:04;100754.04;;;12.89;42.13
38612;BME280;24368;52.156;20.788;2023-04-28T12:43:05;100747.84;;;12.98;41.58
38612;BME280;24368;52.156;20.788;2023-04-28T12:48:06;100740.92;;;12.35;42.10
38612;BME280;24368;52.156;20.788;2023-04-28T12:53:07;100742.08;;;11.90;44.00
38612;BME280;24368;52.156;20.788;2023-04-28T12:58:08;100737.90;;;12.30;44.36
38612;BME280;24368;52.156;20.788;2023-04-28T13:03:09;100738.40;;;12.02;43.20
38612;BME280;24368;52.156;20.788;2023-04-28T13:08:11;100727.90;;;12.39;43.55
38612;BME280;24368;52.156;20.788;2023-04-28T13:13:13;100725.12;;;12.60;43.08
38612;BME280;24368;52.156;20.788;2023-04-28T13:18:14;100722.30;;;12.54;43.74
38612;BME280;24368;52.156;20.788;2023-04-28T13:23:15;100716.27;;;12.95;44.06
38612;BME280;24368;52.156;20.788;2023-04-28T13:28:17;100708.70;;;13.80;42.31
38612;BME280;24368;52.156;20.788;2023-04-28T13:33:18;100700.05;;;14.07;42.25
38612;BME280;24368;52.156;20.788;2023-04-28T13:38:19;100695.27;;;14.01;40.58
38612;BME280;24368;52.156;20.788;2023-04-28T13:43:21;100692.20;;;13.24;43.73
38612;BME280;24368;52.156;20.788;2023-04-28T13:48:23;100694.19;;;13.21;43.55
38612;BME280;24368;52.156;20.788;2023-04-28T13:53:24;100685.09;;;13.55;42.17
38612;BME280;24368;52.156;20.788;2023-04-28T13:58:26;100681.20;;;13.66;41.24
38612;BME280;24368;52.156;20.788;2023-04-28T14:03:28;100682.54;;;13.10;41.42
38612;BME280;24368;52.156;20.788;2023-04-28T14:08:29;100674.21;;;12.85;41.60
38612;BME280;24368;52.156;20.788;2023-04-28T14:13:30;100662.67;;;12.95;41.48
38612;BME280;24368;52.156;20.788;2023-04-28T14:18:31;100658.98;;;13.00;42.69
38612;BME280;24368;52.156;20.788;2023-04-28T14:23:33;100650.70;;;14.02;41.19
38612;BME280;24368;52.156;20.788;2023-04-28T14:28:38;100649.25;;;14.23;42.50
38612;BME280;24368;52.156;20.788;2023-04-28T14:33:39;100648.27;;;14.52;41.40
38612;BME280;24368;52.156;20.788;2023-04-28T14:38:41;100637.19;;;14.74;41.61
38612;BME280;24368;52.156;20.788;2023-04-28T14:43:42;100630.14;;;15.00;41.18
38612;BME280;24368;52.156;20.788;2023-04-28T14:48:44;100622.34;;;15.30;41.63
38612;BME280;24368;52.156;20.788;2023-04-28T14:53:46;100623.77;;;14.37;43.90
38612;BME280;24368;52.156;20.788;2023-04-28T14:58:47;100612.65;;;14.90;44.02
38612;BME280;24368;52.156;20.788;2023-04-28T15:03:49;100603.92;;;15.53;40.74
38612;BME280;24368;52.156;20.788;2023-04-28T15:08:51;100599.39;;;15.69;40.82
38612;BME280;24368;52.156;20.788;2023-04-28T15:13:52;100595.58;;;15.59;41.75
38612;BME280;24368;52.156;20.788;2023-04-28T15:18:54;100591.41;;;15.52;41.64
38612;BME280;24368;52.156;20.788;2023-04-28T15:23:55;100586.21;;;15.49;40.30
38612;BME280;24368;52.156;20.788;2023-04-28T15:28:57;100585.10;;;14.93;40.44
38612;BME280;24368;52.156;20.788;2023-04-28T15:33:59;100585.86;;;14.10;42.50
38612;BME280;24368;52.156;20.788;2023-04-28T15:39:00;100585.33;;;13.63;45.47
38612;BME280;24368;52.156;20.788;2023-04-28T15:44:01;100583.11;;;13.35;44.40
38612;BME280;24368;52.156;20.788;2023-04-28T15:49:03;100582.00;;;13.17;46.41
38612;BME280;24368;52.156;20.788;2023-04-28T15:54:04;100576.30;;;13.08;48.15
38612;BME280;24368;52.156;20.788;2023-04-28T15:59:05;100575.25;;;12.99;48.19
38612;BME280;24368;52.156;20.788;2023-04-28T16:04:06;100578.32;;;12.92;47.66
38612;BME280;24368;52.156;20.788;2023-04-28T16:09:07;100573.30;;;13.09;48.24
38612;BME280;24368;52.156;20.788;2023-04-28T16:14:14;100568.16;;;13.03;49.12
38612;BME280;24368;52.156;20.788;2023-04-28T16:19:17;100561.23;;;13.06;49.27
38612;BME280;24368;52.156;20.788;2023-04-28T16:24:18;100557.91;;;13.14;49.95
38612;BME280;24368;52.156;20.788;2023-04-28T16:29:22;100556.11;;;12.91;49.89
38612;BME280;24368;52.156;20.788;2023-04-28T16:34:23;100552.61;;;12.76;49.67
38612;BME280;24368;52.156;20.788;2023-04-28T16:39:24;100552.72;;;12.82;50.11
38612;BME280;24368;52.156;20.788;2023-04-28T16:44:27;100544.86;;;12.83;51.04
38612;BME280;24368;52.156;20.788;2023-04-28T16:49:28;100541.31;;;12.83;50.85
38612;BME280;24368;52.156;20.788;2023-04-28T16:54:30;100538.69;;;12.66;50.88
38612;BME280;24368;52.156;20.788;2023-04-28T16:59:31;100537.22;;;12.41;51.83
38612;BME280;24368;52.156;20.788;2023-04-28T17:04:33;100539.78;;;12.27;52.14
38612;BME280;24368;52.156;20.788;2023-04-28T17:09:36;100533.09;;;12.18;53.26
38612;BME280;24368;52.156;20.788;2023-04-28T17:14:38;100531.29;;;12.03;54.19
38612;BME280;24368;52.156;20.788;2023-04-28T17:19:39;100533.09;;;11.94;53.42
38612;BME280;24368;52.156;20.788;2023-04-28T17:24:42;100531.13;;;11.86;52.63
38612;BME280;24368;52.156;20.788;2023-04-28T17:29:45;100524.86;;;11.78;51.27
38612;BME280;24368;52.156;20.788;2023-04-28T17:34:46;100526.35;;;11.70;51.09
38612;BME280;24368;52.156;20.788;2023-04-28T17:39:50;100523.11;;;11.66;51.89
38612;BME280;24368;52.156;20.788;2023-04-28T17:44:51;100517.85;;;11.53;52.31
38612;BME280;24368;52.156;20.788;2023-04-28T17:49:53;100521.94;;;11.41;52.33
38612;BME280;24368;52.156;20.788;2023-04-28T17:54:55;100523.73;;;11.34;52.55
38612;BME280;24368;52.156;20.788;2023-04-28T17:59:56;100516.80;;;11.25;53.23
38612;BME280;24368;52.156;20.788;2023-04-28T18:04:57;100520.19;;;11.18;53.60
38612;BME280;24368;52.156;20.788;2023-04-28T18:09:59;100514.42;;;11.09;54.13
38612;BME280;24368;52.156;20.788;2023-04-28T18:15:00;100516.87;;;11.06;56.30
38612;BME280;24368;52.156;20.788;2023-04-28T18:20:03;100517.36;;;10.93;57.02
38612;BME280;24368;52.156;20.788;2023-04-28T18:25:06;100513.66;;;10.84;58.19
38612;BME280;24368;52.156;20.788;2023-04-28T18:30:08;100518.13;;;10.77;59.68
38612;BME280;24368;52.156;20.788;2023-04-28T18:35:09;100521.85;;;10.69;59.61
38612;BME280;24368;52.156;20.788;2023-04-28T18:40:11;100522.30;;;10.65;59.14
38612;BME280;24368;52.156;20.788;2023-04-28T18:45:12;100522.20;;;10.51;57.34
38612;BME280;24368;52.156;20.788;2023-04-28T18:50:14;100520.00;;;10.54;57.08
38612;BME280;24368;52.156;20.788;2023-04-28T18:55:15;100518.80;;;10.41;56.25
38612;BME280;24368;52.156;20.788;2023-04-28T19:00:16;100517.91;;;10.28;56.88
38612;BME280;24368;52.156;20.788;2023-04-28T19:05:18;100514.20;;;10.23;57.73
38612;BME280;24368;52.156;20.788;2023-04-28T19:10:20;100512.87;;;10.22;58.59
38612;BME280;24368;52.156;20.788;2023-04-28T19:15:21;100516.42;;;10.11;58.47
38612;BME280;24368;52.156;20.788;2023-04-28T19:20:22;100514.08;;;9.96;58.76
38612;BME280;24368;52.156;20.788;2023-04-28T19:25:23;100512.47;;;10.00;60.33
38612;BME280;24368;52.156;20.788;2023-04-28T19:30:24;100511.23;;;9.80;59.41
38612;BME280;24368;52.156;20.788;2023-04-28T19:35:26;100512.46;;;9.69;59.69
38612;BME280;24368;52.156;20.788;2023-04-28T19:40:27;100509.48;;;9.71;59.51
38612;BME280;24368;52.156;20.788;2023-04-28T19:45:30;100507.87;;;9.71;60.15
38612;BME280;24368;52.156;20.788;2023-04-28T19:50:31;100508.55;;;9.60;60.92
38612;BME280;24368;52.156;20.788;2023-04-28T19:55:33;100507.84;;;9.45;60.18
38612;BME280;24368;52.156;20.788;2023-04-28T20:00:34;100508.77;;;9.37;60.37
38612;BME280;24368;52.156;20.788;2023-04-28T20:05:38;100507.54;;;9.33;60.60
38612;BME280;24368;52.156;20.788;2023-04-28T20:10:40;100514.34;;;9.30;60.56
38612;BME280;24368;52.156;20.788;2023-04-28T20:15:42;100511.47;;;9.25;60.49
38612;BME280;24368;52.156;20.788;2023-04-28T20:20:43;100506.08;;;9.30;60.43
38612;BME280;24368;52.156;20.788;2023-04-28T20:25:45;100507.05;;;9.19;60.75
38612;BME280;24368;52.156;20.788;2023-04-28T20:30:46;100512.10;;;9.13;60.78
38612;BME280;24368;52.156;20.788;2023-04-28T20:35:47;100513.38;;;9.04;60.96
38612;BME280;24368;52.156;20.788;2023-04-28T20:40:49;100515.46;;;9.00;60.93
38612;BME280;24368;52.156;20.788;2023-04-28T20:45:50;100512.38;;;8.98;61.11
38612;BME280;24368;52.156;20.788;2023-04-28T20:50:51;100507.06;;;8.98;60.91
38612;BME280;24368;52.156;20.788;2023-04-28T20:55:55;100508.11;;;8.92;60.72
38612;BME280;24368;52.156;20.788;2023-04-28T21:00:56;100505.81;;;8.96;60.74
38612;BME280;24368;52.156;20.788;2023-04-28T21:05:57;100499.70;;;8.88;60.81
38612;BME280;24368;52.156;20.788;2023-04-28T21:10:58;100495.14;;;8.82;61.25
38612;BME280;24368;52.156;20.788;2023-04-28T21:16:00;100492.69;;;8.84;61.57
38612;BME280;24368;52.156;20.788;2023-04-28T21:21:01;100487.90;;;8.79;61.59
38612;BME280;24368;52.156;20.788;2023-04-28T21:26:02;100489.61;;;8.83;62.42
38612;BME280;24368;52.156;20.788;2023-04-28T21:31:04;100483.52;;;8.79;62.11
38612;BME280;24368;52.156;20.788;2023-04-28T21:36:06;100482.32;;;8.77;62.32
38612;BME280;24368;52.156;20.788;2023-04-28T21:41:07;100483.59;;;8.70;62.85
38612;BME280;24368;52.156;20.788;2023-04-28T21:46:08;100482.52;;;8.67;63.21
38612;BME280;24368;52.156;20.788;2023-04-28T21:51:10;100481.38;;;8.60;63.92
38612;BME280;24368;52.156;20.788;2023-04-28T21:56:12;100480.20;;;8.57;63.89
38612;BME280;24368;52.156;20.788;2023-04-28T22:01:15;100482.48;;;8.48;64.67
38612;BME280;24368;52.156;20.788;2023-04-28T22:06:18;100485.10;;;8.40;64.93
38612;BME280;24368;52.156;20.788;2023-04-28T22:11:20;100483.36;;;8.40;65.11
38612;BME280;24368;52.156;20.788;2023-04-28T22:16:21;100480.59;;;8.33;66.00
38612;BME280;24368;52.156;20.788;2023-04-28T22:21:22;100483.48;;;8.24;65.92
38612;BME280;24368;52.156;20.788;2023-04-28T22:26:23;100480.08;;;8.23;66.53
38612;BME280;24368;52.156;20.788;2023-04-28T22:31:25;100477.83;;;8.10;67.23
38612;BME280;24368;52.156;20.788;2023-04-28T22:36:26;100471.77;;;8.12;67.39
38612;BME280;24368;52.156;20.788;2023-04-28T22:41:28;100467.52;;;8.08;67.82
38612;BME280;24368;52.156;20.788;2023-04-28T22:46:29;100461.11;;;8.03;67.85
38612;BME280;24368;52.156;20.788;2023-04-28T22:51:30;100464.30;;;7.95;68.41
38612;BME280;24368;52.156;20.788;2023-04-28T22:56:31;100462.45;;;7.86;68.07
38612;BME280;24368;52.156;20.788;2023-04-28T23:01:32;100467.05;;;7.75;68.26
38612;BME280;24368;52.156;20.788;2023-04-28T23:06:34;100461.88;;;7.76;68.34
38612;BME280;24368;52.156;20.788;2023-04-28T23:11:35;100456.89;;;7.73;68.40
38612;BME280;24368;52.156;20.788;2023-04-28T23:16:36;100451.03;;;7.66;68.92
38612;BME280;24368;52.156;20.788;2023-04-28T23:21:37;100449.13;;;7.63;68.96
38612;BME280;24368;52.156;20.788;2023-04-28T23:26:38;100445.52;;;7.53;69.16
38612;BME280;24368;52.156;20.788;2023-04-28T23:31:39;100441.24;;;7.45;69.89
38612;BME280;24368;52.156;20.788;2023-04-28T23:36:40;100436.31;;;7.44;70.22
38612;BME280;24368;52.156;20.788;2023-04-28T23:41:41;100427.95;;;7.37;70.68
38612;BME280;24368;52.156;20.788;2023-04-28T23:46:43;100423.80;;;7.32;71.04
38612;BME280;24368;52.156;20.788;2023-04-28T23:51:44;100417.53;;;7.29;71.14
38612;BME280;24368;52.156;20.788;2023-04-28T23:56:45;100412.62;;;7.20;71.72
